sensor_id;sensor_type;location;lat;lon;timestamp;P1;durP1;ratioP1;P2;durP2;ratioP2
7747;SDS011;3918;42.564;23.164;2023-02-19T00:01:17;2.67;;;2.28;;
7747;SDS011;3918;42.564;23.164;2023-02-19T00:03:47;5.55;;;2.97;;
7747;SDS011;3918;42.564;23.164;2023-02-19T00:06:16;4.85;;;3.20;;
7747;SDS011;3918;42.564;23.164;2023-02-19T00:08:44;4.15;;;2.40;;
7747;SDS011;3918;42.564;23.164;2023-02-19T00:11:12;5.22;;;2.20;;
7747;SDS011;3918;42.564;23.164;2023-02-19T00:13:41;3.60;;;2.33;;
7747;SDS011;3918;42.564;23.164;2023-02-19T00:16:11;5.40;;;2.50;;
7747;SDS011;3918;42.564;23.164;2023-02-19T00:18:39;3.83;;;1.85;;
7747;SDS011;3918;42.564;23.164;2023-02-19T00:21:07;3.75;;;2.15;;
7747;SDS011;3918;42.564;23.164;2023-02-19T00:23:34;5.65;;;2.40;;
7747;SDS011;3918;42.564;23.164;2023-02-19T00:26:01;2.30;;;2.08;;
7747;SDS011;3918;42.564;23.164;2023-02-19T00:28:29;5.07;;;2.72;;
7747;SDS011;3918;42.564;23.164;2023-02-19T00:30:55;3.95;;;1.73;;
7747;SDS011;3918;42.564;23.164;2023-02-19T00:33:30;5.65;;;2.72;;
7747;SDS011;3918;42.564;23.164;2023-02-19T00:35:58;3.22;;;2.58;;
7747;SDS011;3918;42.564;23.164;2023-02-19T00:38:25;8.13;;;3.20;;
7747;SDS011;3918;42.564;23.164;2023-02-19T00:40:52;2.90;;;2.55;;
7747;SDS011;3918;42.564;23.164;2023-02-19T00:43:19;6.07;;;3.00;;
7747;SDS011;3918;42.564;23.164;2023-02-19T00:45:46;3.92;;;3.00;;
7747;SDS011;3918;42.564;23.164;2023-02-19T00:48:13;4.30;;;2.58;;
7747;SDS011;3918;42.564;23.164;2023-02-19T00:50:41;3.83;;;2.58;;
7747;SDS011;3918;42.564;23.164;2023-02-19T00:53:08;3.60;;;2.30;;
7747;SDS011;3918;42.564;23.164;2023-02-19T00:55:35;5.05;;;3.03;;
7747;SDS011;3918;42.564;23.164;2023-02-19T00:58:02;10.07;;;3.03;;
7747;SDS011;3918;42.564;23.164;2023-02-19T01:00:28;11.88;;;3.13;;
7747;SDS011;3918;42.564;23.164;2023-02-19T01:02:57;10.90;;;3.15;;
7747;SDS011;3918;42.564;23.164;2023-02-19T01:05:24;3.47;;;2.70;;
7747;SDS011;3918;42.564;23.164;2023-02-19T01:07:52;7.82;;;2.92;;
7747;SDS011;3918;42.564;23.164;2023-02-19T01:10:19;5.72;;;2.85;;
7747;SDS011;3918;42.564;23.164;2023-02-19T01:12:46;5.38;;;2.83;;
7747;SDS011;3918;42.564;23.164;2023-02-19T01:15:12;6.70;;;2.55;;
7747;SDS011;3918;42.564;23.164;2023-02-19T01:17:39;5.95;;;2.85;;
7747;SDS011;3918;42.564;23.164;2023-02-19T01:20:06;5.63;;;2.47;;
7747;SDS011;3918;42.564;23.164;2023-02-19T01:22:34;8.45;;;3.25;;
7747;SDS011;3918;42.564;23.164;2023-02-19T01:25:02;6.60;;;2.60;;
7747;SDS011;3918;42.564;23.164;2023-02-19T01:27:29;4.25;;;2.75;;
7747;SDS011;3918;42.564;23.164;2023-02-19T01:29:56;4.82;;;2.80;;
7747;SDS011;3918;42.564;23.164;2023-02-19T01:32:23;11.63;;;3.03;;
7747;SDS011;3918;42.564;23.164;2023-02-19T01:34:50;10.07;;;3.30;;
7747;SDS011;3918;42.564;23.164;2023-02-19T01:37:17;5.55;;;3.17;;
7747;SDS011;3918;42.564;23.164;2023-02-19T01:39:43;7.88;;;3.40;;
7747;SDS011;3918;42.564;23.164;2023-02-19T01:42:12;6.05;;;3.00;;
7747;SDS011;3918;42.564;23.164;2023-02-19T01:48:03;12.48;;;3.40;;
7747;SDS011;3918;42.564;23.164;2023-02-19T01:50:35;8.20;;;3.20;;
7747;SDS011;3918;42.564;23.164;2023-02-19T01:53:05;6.97;;;2.70;;
7747;SDS011;3918;42.564;23.164;2023-02-19T01:55:33;8.68;;;3.35;;
7747;SDS011;3918;42.564;23.164;2023-02-19T01:58:02;8.98;;;3.13;;
7747;SDS011;3918;42.564;23.164;2023-02-19T02:00:30;5.53;;;2.80;;
7747;SDS011;3918;42.564;23.164;2023-02-19T02:02:58;9.00;;;3.20;;
7747;SDS011;3918;42.564;23.164;2023-02-19T02:05:31;5.65;;;3.15;;
7747;SDS011;3918;42.564;23.164;2023-02-19T02:08:14;4.80;;;2.95;;
7747;SDS011;3918;42.564;23.164;2023-02-19T02:11:01;9.68;;;2.80;;
7747;SDS011;3918;42.564;23.164;2023-02-19T02:13:29;6.93;;;2.90;;
7747;SDS011;3918;42.564;23.164;2023-02-19T02:16:01;5.13;;;3.03;;
7747;SDS011;3918;42.564;23.164;2023-02-19T02:18:40;5.63;;;2.72;;
7747;SDS011;3918;42.564;23.164;2023-02-19T02:21:27;5.00;;;3.17;;
7747;SDS011;3918;42.564;23.164;2023-02-19T02:24:11;4.78;;;2.92;;
7747;SDS011;3918;42.564;23.164;2023-02-19T02:27:03;8.00;;;3.28;;
7747;SDS011;3918;42.564;23.164;2023-02-19T02:32:34;3.63;;;2.35;;
7747;SDS011;3918;42.564;23.164;2023-02-19T02:35:06;8.00;;;3.17;;
7747;SDS011;3918;42.564;23.164;2023-02-19T02:37:37;5.18;;;2.33;;
7747;SDS011;3918;42.564;23.164;2023-02-19T02:40:07;3.50;;;2.65;;
7747;SDS011;3918;42.564;23.164;2023-02-19T02:42:37;4.05;;;2.78;;
7747;SDS011;3918;42.564;23.164;2023-02-19T02:45:14;4.82;;;3.13;;
7747;SDS011;3918;42.564;23.164;2023-02-19T02:48:03;9.23;;;3.38;;
7747;SDS011;3918;42.564;23.164;2023-02-19T02:50:37;8.68;;;2.92;;
7747;SDS011;3918;42.564;23.164;2023-02-19T02:53:08;3.78;;;2.72;;
7747;SDS011;3918;42.564;23.164;2023-02-19T02:55:57;3.75;;;2.58;;
7747;SDS011;3918;42.564;23.164;2023-02-19T02:58:25;5.70;;;2.97;;
7747;SDS011;3918;42.564;23.164;2023-02-19T03:00:55;3.10;;;2.13;;
7747;SDS011;3918;42.564;23.164;2023-02-19T03:03:43;4.70;;;3.10;;
7747;SDS011;3918;42.564;23.164;2023-02-19T03:06:14;4.18;;;2.90;;
7747;SDS011;3918;42.564;23.164;2023-02-19T03:08:44;4.43;;;2.92;;
7747;SDS011;3918;42.564;23.164;2023-02-19T03:11:16;7.72;;;2.42;;
7747;SDS011;3918;42.564;23.164;2023-02-19T03:14:03;3.63;;;2.30;;
7747;SDS011;3918;42.564;23.164;2023-02-19T03:16:53;5.20;;;2.97;;
7747;SDS011;3918;42.564;23.164;2023-02-19T03:19:45;7.13;;;3.47;;
7747;SDS011;3918;42.564;23.164;2023-02-19T03:22:18;3.13;;;2.33;;
7747;SDS011;3918;42.564;23.164;2023-02-19T03:24:49;5.50;;;2.63;;
7747;SDS011;3918;42.564;23.164;2023-02-19T03:27:38;4.47;;;3.10;;
7747;SDS011;3918;42.564;23.164;2023-02-19T03:30:09;4.60;;;2.70;;
7747;SDS011;3918;42.564;23.164;2023-02-19T03:32:41;5.05;;;2.75;;
7747;SDS011;3918;42.564;23.164;2023-02-19T03:35:12;6.45;;;2.78;;
7747;SDS011;3918;42.564;23.164;2023-02-19T03:37:43;5.50;;;2.75;;
7747;SDS011;3918;42.564;23.164;2023-02-19T03:40:12;4.10;;;2.20;;
7747;SDS011;3918;42.564;23.164;2023-02-19T03:42:41;3.33;;;2.38;;
7747;SDS011;3918;42.564;23.164;2023-02-19T03:45:17;5.93;;;2.58;;
7747;SDS011;3918;42.564;23.164;2023-02-19T03:47:56;4.00;;;2.53;;
7747;SDS011;3918;42.564;23.164;2023-02-19T03:50:31;4.40;;;2.67;;
7747;SDS011;3918;42.564;23.164;2023-02-19T03:53:07;4.15;;;2.50;;
7747;SDS011;3918;42.564;23.164;2023-02-19T03:55:41;6.22;;;2.70;;
7747;SDS011;3918;42.564;23.164;2023-02-19T03:58:11;3.13;;;2.50;;
7747;SDS011;3918;42.564;23.164;2023-02-19T04:00:42;3.80;;;2.42;;
7747;SDS011;3918;42.564;23.164;2023-02-19T04:03:16;3.05;;;2.55;;
7747;SDS011;3918;42.564;23.164;2023-02-19T04:05:47;3.40;;;2.38;;
7747;SDS011;3918;42.564;23.164;2023-02-19T04:08:19;2.30;;;1.98;;
7747;SDS011;3918;42.564;23.164;2023-02-19T04:10:48;5.13;;;2.28;;
7747;SDS011;3918;42.564;23.164;2023-02-19T04:13:18;3.63;;;2.72;;
7747;SDS011;3918;42.564;23.164;2023-02-19T04:15:49;5.55;;;2.60;;
7747;SDS011;3918;42.564;23.164;2023-02-19T04:18:21;3.13;;;2.17;;
7747;SDS011;3918;42.564;23.164;2023-02-19T04:20:50;2.95;;;2.10;;
7747;SDS011;3918;42.564;23.164;2023-02-19T04:23:18;3.53;;;2.58;;
7747;SDS011;3918;42.564;23.164;2023-02-19T04:25:49;4.22;;;2.42;;
7747;SDS011;3918;42.564;23.164;2023-02-19T04:28:20;4.53;;;2.75;;
7747;SDS011;3918;42.564;23.164;2023-02-19T04:30:47;4.68;;;2.83;;
7747;SDS011;3918;42.564;23.164;2023-02-19T04:33:13;2.92;;;2.40;;
7747;SDS011;3918;42.564;23.164;2023-02-19T04:35:42;4.10;;;2.58;;
7747;SDS011;3918;42.564;23.164;2023-02-19T04:38:08;5.78;;;2.35;;
7747;SDS011;3918;42.564;23.164;2023-02-19T04:40:36;5.15;;;2.45;;
7747;SDS011;3918;42.564;23.164;2023-02-19T04:43:03;3.20;;;2.42;;
7747;SDS011;3918;42.564;23.164;2023-02-19T04:45:29;4.60;;;2.47;;
7747;SDS011;3918;42.564;23.164;2023-02-19T04:47:56;4.30;;;2.78;;
7747;SDS011;3918;42.564;23.164;2023-02-19T04:50:23;4.90;;;3.00;;
7747;SDS011;3918;42.564;23.164;2023-02-19T04:52:52;3.80;;;2.72;;
7747;SDS011;3918;42.564;23.164;2023-02-19T04:55:18;4.07;;;2.85;;
7747;SDS011;3918;42.564;23.164;2023-02-19T04:57:45;3.67;;;2.75;;
7747;SDS011;3918;42.564;23.164;2023-02-19T05:00:12;3.17;;;2.50;;
7747;SDS011;3918;42.564;23.164;2023-02-19T05:02:39;3.33;;;2.75;;
7747;SDS011;3918;42.564;23.164;2023-02-19T05:05:06;4.05;;;2.40;;
7747;SDS011;3918;42.564;23.164;2023-02-19T05:07:33;5.28;;;3.20;;
7747;SDS011;3918;42.564;23.164;2023-02-19T05:10:01;4.35;;;3.40;;
7747;SDS011;3918;42.564;23.164;2023-02-19T05:12:28;6.13;;;3.40;;
7747;SDS011;3918;42.564;23.164;2023-02-19T05:14:55;4.60;;;3.30;;
7747;SDS011;3918;42.564;23.164;2023-02-19T05:17:22;5.60;;;3.05;;
7747;SDS011;3918;42.564;23.164;2023-02-19T05:19:49;7.65;;;3.63;;
7747;SDS011;3918;42.564;23.164;2023-02-19T05:22:16;9.32;;;4.53;;
7747;SDS011;3918;42.564;23.164;2023-02-19T05:24:42;9.10;;;4.72;;
7747;SDS011;3918;42.564;23.164;2023-02-19T05:27:10;9.30;;;5.30;;
7747;SDS011;3918;42.564;23.164;2023-02-19T05:29:37;4.03;;;3.10;;
7747;SDS011;3918;42.564;23.164;2023-02-19T05:32:04;6.03;;;3.33;;
7747;SDS011;3918;42.564;23.164;2023-02-19T05:34:31;7.47;;;3.63;;
7747;SDS011;3918;42.564;23.164;2023-02-19T05:36:58;5.85;;;2.88;;
7747;SDS011;3918;42.564;23.164;2023-02-19T05:39:25;4.47;;;3.00;;
7747;SDS011;3918;42.564;23.164;2023-02-19T05:41:51;4.28;;;3.08;;
7747;SDS011;3918;42.564;23.164;2023-02-19T05:44:19;4.80;;;3.40;;
7747;SDS011;3918;42.564;23.164;2023-02-19T05:46:46;4.43;;;3.53;;
7747;SDS011;3918;42.564;23.164;2023-02-19T05:49:13;6.35;;;4.38;;
7747;SDS011;3918;42.564;23.164;2023-02-19T05:51:40;7.38;;;4.20;;
7747;SDS011;3918;42.564;23.164;2023-02-19T05:54:06;7.32;;;4.03;;
7747;SDS011;3918;42.564;23.164;2023-02-19T05:56:34;5.15;;;3.75;;
7747;SDS011;3918;42.564;23.164;2023-02-19T05:59:03;8.75;;;4.40;;
7747;SDS011;3918;42.564;23.164;2023-02-19T06:01:33;7.30;;;4.20;;
7747;SDS011;3918;42.564;23.164;2023-02-19T06:04:01;8.57;;;4.30;;
7747;SDS011;3918;42.564;23.164;2023-02-19T06:06:28;8.13;;;4.63;;
7747;SDS011;3918;42.564;23.164;2023-02-19T06:08:54;5.85;;;3.95;;
7747;SDS011;3918;42.564;23.164;2023-02-19T06:11:22;9.02;;;4.60;;
7747;SDS011;3918;42.564;23.164;2023-02-19T06:13:49;6.68;;;3.90;;
7747;SDS011;3918;42.564;23.164;2023-02-19T06:16:16;5.82;;;4.18;;
7747;SDS011;3918;42.564;23.164;2023-02-19T06:18:45;7.40;;;4.43;;
7747;SDS011;3918;42.564;23.164;2023-02-19T06:21:12;6.05;;;4.30;;
7747;SDS011;3918;42.564;23.164;2023-02-19T06:23:40;6.07;;;3.72;;
7747;SDS011;3918;42.564;23.164;2023-02-19T06:26:08;7.10;;;4.50;;
7747;SDS011;3918;42.564;23.164;2023-02-19T06:28:36;6.43;;;3.42;;
7747;SDS011;3918;42.564;23.164;2023-02-19T06:31:04;6.50;;;4.63;;
7747;SDS011;3918;42.564;23.164;2023-02-19T06:33:31;4.63;;;3.80;;
7747;SDS011;3918;42.564;23.164;2023-02-19T06:36:01;4.15;;;3.42;;
7747;SDS011;3918;42.564;23.164;2023-02-19T06:38:29;4.60;;;3.40;;
7747;SDS011;3918;42.564;23.164;2023-02-19T06:40:58;6.03;;;3.50;;
7747;SDS011;3918;42.564;23.164;2023-02-19T06:43:26;5.68;;;3.25;;
7747;SDS011;3918;42.564;23.164;2023-02-19T06:45:53;3.88;;;3.25;;
7747;SDS011;3918;42.564;23.164;2023-02-19T06:48:19;5.25;;;3.70;;
7747;SDS011;3918;42.564;23.164;2023-02-19T06:50:46;6.05;;;3.80;;
7747;SDS011;3918;42.564;23.164;2023-02-19T06:53:14;5.43;;;4.20;;
7747;SDS011;3918;42.564;23.164;2023-02-19T06:55:41;9.40;;;4.53;;
7747;SDS011;3918;42.564;23.164;2023-02-19T06:58:08;7.13;;;5.43;;
7747;SDS011;3918;42.564;23.164;2023-02-19T07:00:34;8.98;;;5.30;;
7747;SDS011;3918;42.564;23.164;2023-02-19T07:03:01;8.13;;;5.38;;
7747;SDS011;3918;42.564;23.164;2023-02-19T07:05:28;9.70;;;5.75;;
7747;SDS011;3918;42.564;23.164;2023-02-19T07:07:55;9.50;;;5.10;;
7747;SDS011;3918;42.564;23.164;2023-02-19T07:10:23;7.13;;;4.57;;
7747;SDS011;3918;42.564;23.164;2023-02-19T07:12:50;8.35;;;4.68;;
7747;SDS011;3918;42.564;23.164;2023-02-19T07:15:16;9.20;;;5.18;;
7747;SDS011;3918;42.564;23.164;2023-02-19T07:17:43;6.78;;;4.20;;
7747;SDS011;3918;42.564;23.164;2023-02-19T07:20:10;9.43;;;6.18;;
7747;SDS011;3918;42.564;23.164;2023-02-19T07:22:38;9.93;;;5.97;;
7747;SDS011;3918;42.564;23.164;2023-02-19T07:25:05;11.50;;;7.22;;
7747;SDS011;3918;42.564;23.164;2023-02-19T07:27:33;12.48;;;8.07;;
7747;SDS011;3918;42.564;23.164;2023-02-19T07:30:00;12.25;;;6.55;;
7747;SDS011;3918;42.564;23.164;2023-02-19T07:32:27;10.65;;;6.30;;
7747;SDS011;3918;42.564;23.164;2023-02-19T07:34:54;7.53;;;5.18;;
7747;SDS011;3918;42.564;23.164;2023-02-19T07:37:20;10.32;;;5.22;;
7747;SDS011;3918;42.564;23.164;2023-02-19T07:39:47;4.90;;;4.45;;
7747;SDS011;3918;42.564;23.164;2023-02-19T07:42:14;7.70;;;4.75;;
7747;SDS011;3918;42.564;23.164;2023-02-19T07:44:43;6.57;;;5.40;;
7747;SDS011;3918;42.564;23.164;2023-02-19T07:47:09;6.47;;;4.70;;
7747;SDS011;3918;42.564;23.164;2023-02-19T07:49:36;4.70;;;4.30;;
7747;SDS011;3918;42.564;23.164;2023-02-19T07:52:03;4.93;;;4.00;;
7747;SDS011;3918;42.564;23.164;2023-02-19T07:54:30;6.05;;;4.00;;
7747;SDS011;3918;42.564;23.164;2023-02-19T07:56:57;4.18;;;3.38;;
7747;SDS011;3918;42.564;23.164;2023-02-19T07:59:23;4.35;;;3.95;;
7747;SDS011;3918;42.564;23.164;2023-02-19T08:01:51;4.53;;;4.13;;
7747;SDS011;3918;42.564;23.164;2023-02-19T08:04:36;3.83;;;3.53;;
7747;SDS011;3918;42.564;23.164;2023-02-19T08:07:03;4.38;;;3.30;;
7747;SDS011;3918;42.564;23.164;2023-02-19T08:09:30;4.50;;;3.80;;
7747;SDS011;3918;42.564;23.164;2023-02-19T08:11:58;5.13;;;4.03;;
7747;SDS011;3918;42.564;23.164;2023-02-19T08:14:42;4.20;;;3.80;;
7747;SDS011;3918;42.564;23.164;2023-02-19T08:17:10;4.05;;;3.65;;
7747;SDS011;3918;42.564;23.164;2023-02-19T08:19:37;3.65;;;3.35;;
7747;SDS011;3918;42.564;23.164;2023-02-19T08:22:03;3.88;;;3.20;;
7747;SDS011;3918;42.564;23.164;2023-02-19T08:24:31;9.90;;;3.50;;
7747;SDS011;3918;42.564;23.164;2023-02-19T08:26:58;8.40;;;3.47;;
7747;SDS011;3918;42.564;23.164;2023-02-19T08:29:25;5.43;;;3.97;;
7747;SDS011;3918;42.564;23.164;2023-02-19T08:31:52;5.47;;;3.60;;
7747;SDS011;3918;42.564;23.164;2023-02-19T08:34:20;3.65;;;3.30;;
7747;SDS011;3918;42.564;23.164;2023-02-19T08:36:46;3.58;;;3.30;;
7747;SDS011;3918;42.564;23.164;2023-02-19T08:39:13;4.03;;;3.63;;
7747;SDS011;3918;42.564;23.164;2023-02-19T08:41:40;3.25;;;2.92;;
7747;SDS011;3918;42.564;23.164;2023-02-19T08:44:07;8.43;;;3.72;;
7747;SDS011;3918;42.564;23.164;2023-02-19T08:46:33;4.10;;;3.70;;
7747;SDS011;3918;42.564;23.164;2023-02-19T08:49:00;3.90;;;3.60;;
7747;SDS011;3918;42.564;23.164;2023-02-19T08:51:28;3.88;;;3.47;;
7747;SDS011;3918;42.564;23.164;2023-02-19T08:53:55;5.15;;;3.47;;
7747;SDS011;3918;42.564;23.164;2023-02-19T08:56:22;6.00;;;4.63;;
7747;SDS011;3918;42.564;23.164;2023-02-19T08:58:49;3.85;;;3.45;;
7747;SDS011;3918;42.564;23.164;2023-02-19T09:01:15;6.68;;;4.10;;
7747;SDS011;3918;42.564;23.164;2023-02-19T09:03:43;4.50;;;4.10;;
7747;SDS011;3918;42.564;23.164;2023-02-19T09:06:12;4.38;;;3.95;;
7747;SDS011;3918;42.564;23.164;2023-02-19T09:08:42;4.57;;;3.80;;
7747;SDS011;3918;42.564;23.164;2023-02-19T09:11:09;4.88;;;4.07;;
7747;SDS011;3918;42.564;23.164;2023-02-19T09:13:36;4.30;;;3.70;;
7747;SDS011;3918;42.564;23.164;2023-02-19T09:16:03;5.05;;;3.67;;
7747;SDS011;3918;42.564;23.164;2023-02-19T09:18:31;5.07;;;3.78;;
7747;SDS011;3918;42.564;23.164;2023-02-19T09:20:58;6.03;;;4.18;;
7747;SDS011;3918;42.564;23.164;2023-02-19T09:23:26;4.57;;;3.50;;
7747;SDS011;3918;42.564;23.164;2023-02-19T09:25:57;5.45;;;3.33;;
7747;SDS011;3918;42.564;23.164;2023-02-19T09:28:24;6.78;;;3.83;;
7747;SDS011;3918;42.564;23.164;2023-02-19T09:30:51;4.05;;;3.65;;
7747;SDS011;3918;42.564;23.164;2023-02-19T09:33:18;4.47;;;3.47;;
7747;SDS011;3918;42.564;23.164;2023-02-19T09:35:44;4.60;;;2.90;;
7747;SDS011;3918;42.564;23.164;2023-02-19T09:38:11;3.88;;;3.35;;
7747;SDS011;3918;42.564;23.164;2023-02-19T09:40:38;4.70;;;3.13;;
7747;SDS011;3918;42.564;23.164;2023-02-19T09:43:06;5.00;;;3.15;;
7747;SDS011;3918;42.564;23.164;2023-02-19T09:45:35;3.65;;;2.90;;
7747;SDS011;3918;42.564;23.164;2023-02-19T09:48:03;6.82;;;2.90;;
7747;SDS011;3918;42.564;23.164;2023-02-19T09:50:32;2.65;;;2.38;;
7747;SDS011;3918;42.564;23.164;2023-02-19T09:53:03;6.57;;;4.05;;
7747;SDS011;3918;42.564;23.164;2023-02-19T09:55:38;3.22;;;2.72;;
7747;SDS011;3918;42.564;23.164;2023-02-19T09:58:13;3.05;;;2.75;;
7747;SDS011;3918;42.564;23.164;2023-02-19T10:00:48;4.03;;;2.47;;
7747;SDS011;3918;42.564;23.164;2023-02-19T10:03:20;4.78;;;2.50;;
7747;SDS011;3918;42.564;23.164;2023-02-19T10:05:49;2.80;;;2.60;;
7747;SDS011;3918;42.564;23.164;2023-02-19T10:08:18;3.65;;;2.88;;
7747;SDS011;3918;42.564;23.164;2023-02-19T10:10:46;2.88;;;2.50;;
7747;SDS011;3918;42.564;23.164;2023-02-19T10:13:16;4.03;;;2.88;;
7747;SDS011;3918;42.564;23.164;2023-02-19T10:15:46;3.65;;;2.45;;
7747;SDS011;3918;42.564;23.164;2023-02-19T10:18:15;2.75;;;2.50;;
7747;SDS011;3918;42.564;23.164;2023-02-19T10:20:44;2.40;;;2.20;;
7747;SDS011;3918;42.564;23.164;2023-02-19T10:23:12;3.17;;;2.40;;
7747;SDS011;3918;42.564;23.164;2023-02-19T10:25:41;4.28;;;2.10;;
7747;SDS011;3918;42.564;23.164;2023-02-19T10:28:12;2.65;;;2.20;;
7747;SDS011;3918;42.564;23.164;2023-02-19T10:30:42;3.88;;;2.70;;
7747;SDS011;3918;42.564;23.164;2023-02-19T10:33:10;4.35;;;2.20;;
7747;SDS011;3918;42.564;23.164;2023-02-19T10:35:49;2.75;;;2.08;;
7747;SDS011;3918;42.564;23.164;2023-02-19T10:38:19;3.63;;;2.30;;
7747;SDS011;3918;42.564;23.164;2023-02-19T10:40:47;7.07;;;2.15;;
7747;SDS011;3918;42.564;23.164;2023-02-19T10:43:19;10.75;;;2.80;;
7747;SDS011;3918;42.564;23.164;2023-02-19T10:45:56;4.00;;;2.38;;
7747;SDS011;3918;42.564;23.164;2023-02-19T10:48:27;3.05;;;2.22;;
7747;SDS011;3918;42.564;23.164;2023-02-19T10:50:57;2.63;;;2.15;;
7747;SDS011;3918;42.564;23.164;2023-02-19T10:56:12;3.78;;;1.90;;
7747;SDS011;3918;42.564;23.164;2023-02-19T10:58:41;2.45;;;1.70;;
7747;SDS011;3918;42.564;23.164;2023-02-19T11:01:14;3.70;;;2.10;;
7747;SDS011;3918;42.564;23.164;2023-02-19T11:03:42;2.30;;;2.15;;
7747;SDS011;3918;42.564;23.164;2023-02-19T11:06:09;4.38;;;2.00;;
7747;SDS011;3918;42.564;23.164;2023-02-19T11:08:45;2.25;;;1.80;;
7747;SDS011;3918;42.564;23.164;2023-02-19T11:11:21;3.15;;;1.90;;
7747;SDS011;3918;42.564;23.164;2023-02-19T11:14:00;1.95;;;1.85;;
7747;SDS011;3918;42.564;23.164;2023-02-19T11:16:39;5.57;;;2.60;;
7747;SDS011;3918;42.564;23.164;2023-02-19T11:19:18;4.00;;;2.15;;
7747;SDS011;3918;42.564;23.164;2023-02-19T11:21:48;3.20;;;2.45;;
7747;SDS011;3918;42.564;23.164;2023-02-19T11:24:20;4.63;;;2.58;;
7747;SDS011;3918;42.564;23.164;2023-02-19T11:26:51;3.17;;;2.28;;
7747;SDS011;3918;42.564;23.164;2023-02-19T11:29:19;4.78;;;1.95;;
7747;SDS011;3918;42.564;23.164;2023-02-19T11:31:50;2.70;;;2.17;;
7747;SDS011;3918;42.564;23.164;2023-02-19T11:34:27;3.60;;;2.30;;
7747;SDS011;3918;42.564;23.164;2023-02-19T11:37:07;4.35;;;2.47;;
7747;SDS011;3918;42.564;23.164;2023-02-19T11:39:36;3.05;;;2.50;;
7747;SDS011;3918;42.564;23.164;2023-02-19T11:42:08;2.60;;;2.40;;
7747;SDS011;3918;42.564;23.164;2023-02-19T11:44:48;3.47;;;2.58;;
7747;SDS011;3918;42.564;23.164;2023-02-19T11:50:17;2.80;;;2.40;;
7747;SDS011;3918;42.564;23.164;2023-02-19T11:52:51;6.43;;;2.20;;
7747;SDS011;3918;42.564;23.164;2023-02-19T11:55:33;3.53;;;2.13;;
7747;SDS011;3918;42.564;23.164;2023-02-19T11:58:11;4.35;;;2.40;;
7747;SDS011;3918;42.564;23.164;2023-02-19T12:00:56;2.72;;;2.22;;
7747;SDS011;3918;42.564;23.164;2023-02-19T12:03:44;4.10;;;2.95;;
7747;SDS011;3918;42.564;23.164;2023-02-19T12:06:24;6.78;;;2.55;;
7747;SDS011;3918;42.564;23.164;2023-02-19T12:12:08;3.83;;;2.25;;
7747;SDS011;3918;42.564;23.164;2023-02-19T12:14:55;2.88;;;2.58;;
7747;SDS011;3918;42.564;23.164;2023-02-19T12:17:42;5.53;;;2.88;;
7747;SDS011;3918;42.564;23.164;2023-02-19T12:20:23;3.50;;;2.70;;
7747;SDS011;3918;42.564;23.164;2023-02-19T12:25:58;5.82;;;2.67;;
7747;SDS011;3918;42.564;23.164;2023-02-19T12:28:39;5.32;;;2.33;;
7747;SDS011;3918;42.564;23.164;2023-02-19T12:31:24;3.20;;;2.90;;
7747;SDS011;3918;42.564;23.164;2023-02-19T12:34:09;4.97;;;2.60;;
7747;SDS011;3918;42.564;23.164;2023-02-19T12:36:59;3.90;;;2.88;;
7747;SDS011;3918;42.564;23.164;2023-02-19T12:39:39;6.40;;;2.90;;
7747;SDS011;3918;42.564;23.164;2023-02-19T12:42:14;4.60;;;2.42;;
7747;SDS011;3918;42.564;23.164;2023-02-19T12:44:50;4.35;;;3.13;;
7747;SDS011;3918;42.564;23.164;2023-02-19T12:47:22;4.45;;;2.60;;
7747;SDS011;3918;42.564;23.164;2023-02-19T12:49:59;4.70;;;2.70;;
7747;SDS011;3918;42.564;23.164;2023-02-19T12:52:33;5.20;;;2.67;;
7747;SDS011;3918;42.564;23.164;2023-02-19T12:55:07;3.63;;;3.10;;
7747;SDS011;3918;42.564;23.164;2023-02-19T12:57:44;5.03;;;3.22;;
7747;SDS011;3918;42.564;23.164;2023-02-19T13:00:17;4.55;;;2.83;;
7747;SDS011;3918;42.564;23.164;2023-02-19T13:02:55;6.47;;;2.65;;
7747;SDS011;3918;42.564;23.164;2023-02-19T13:05:33;8.25;;;3.05;;
7747;SDS011;3918;42.564;23.164;2023-02-19T13:08:09;6.78;;;2.60;;
7747;SDS011;3918;42.564;23.164;2023-02-19T13:10:41;3.78;;;2.60;;
7747;SDS011;3918;42.564;23.164;2023-02-19T13:13:11;10.43;;;4.22;;
7747;SDS011;3918;42.564;23.164;2023-02-19T13:15:44;9.75;;;2.70;;
7747;SDS011;3918;42.564;23.164;2023-02-19T13:18:15;14.70;;;3.67;;
7747;SDS011;3918;42.564;23.164;2023-02-19T13:20:45;5.35;;;2.90;;
7747;SDS011;3918;42.564;23.164;2023-02-19T13:23:18;4.13;;;2.70;;
7747;SDS011;3918;42.564;23.164;2023-02-19T13:26:19;4.88;;;2.28;;
7747;SDS011;3918;42.564;23.164;2023-02-19T13:29:06;10.25;;;2.80;;
7747;SDS011;3918;42.564;23.164;2023-02-19T13:31:49;9.85;;;3.10;;
7747;SDS011;3918;42.564;23.164;2023-02-19T13:34:32;7.80;;;3.22;;
7747;SDS011;3918;42.564;23.164;2023-02-19T13:37:11;5.72;;;3.10;;
7747;SDS011;3918;42.564;23.164;2023-02-19T13:39:45;6.22;;;2.95;;
7747;SDS011;3918;42.564;23.164;2023-02-19T13:42:22;6.57;;;3.10;;
7747;SDS011;3918;42.564;23.164;2023-02-19T13:44:51;10.23;;;2.95;;
7747;SDS011;3918;42.564;23.164;2023-02-19T13:50:16;6.05;;;2.90;;
7747;SDS011;3918;42.564;23.164;2023-02-19T13:52:45;3.92;;;2.85;;
7747;SDS011;3918;42.564;23.164;2023-02-19T14:04:20;5.30;;;2.58;;
7747;SDS011;3918;42.564;23.164;2023-02-19T14:07:18;6.43;;;3.15;;
7747;SDS011;3918;42.564;23.164;2023-02-19T14:09:47;8.88;;;3.28;;
7747;SDS011;3918;42.564;23.164;2023-02-19T14:12:20;6.72;;;3.00;;
7747;SDS011;3918;42.564;23.164;2023-02-19T14:14:48;9.95;;;3.25;;
7747;SDS011;3918;42.564;23.164;2023-02-19T14:17:26;6.80;;;3.38;;
7747;SDS011;3918;42.564;23.164;2023-02-19T14:19:54;6.25;;;3.13;;
7747;SDS011;3918;42.564;23.164;2023-02-19T14:25:43;8.23;;;3.72;;
7747;SDS011;3918;42.564;23.164;2023-02-19T14:28:15;4.25;;;2.83;;
7747;SDS011;3918;42.564;23.164;2023-02-19T14:30:47;5.90;;;3.20;;
7747;SDS011;3918;42.564;23.164;2023-02-19T14:33:16;5.70;;;3.10;;
7747;SDS011;3918;42.564;23.164;2023-02-19T14:35:45;7.45;;;3.30;;
7747;SDS011;3918;42.564;23.164;2023-02-19T14:38:15;4.50;;;3.25;;
7747;SDS011;3918;42.564;23.164;2023-02-19T14:40:46;4.65;;;3.08;;
7747;SDS011;3918;42.564;23.164;2023-02-19T14:43:16;22.33;;;3.13;;
7747;SDS011;3918;42.564;23.164;2023-02-19T14:45:46;9.90;;;3.00;;
7747;SDS011;3918;42.564;23.164;2023-02-19T14:48:17;11.65;;;3.10;;
7747;SDS011;3918;42.564;23.164;2023-02-19T14:50:49;4.45;;;2.95;;
7747;SDS011;3918;42.564;23.164;2023-02-19T14:53:19;7.57;;;3.20;;
7747;SDS011;3918;42.564;23.164;2023-02-19T14:55:48;6.18;;;3.20;;
7747;SDS011;3918;42.564;23.164;2023-02-19T14:58:19;5.75;;;2.88;;
7747;SDS011;3918;42.564;23.164;2023-02-19T15:00:49;5.22;;;2.95;;
7747;SDS011;3918;42.564;23.164;2023-02-19T15:03:23;5.00;;;2.90;;
7747;SDS011;3918;42.564;23.164;2023-02-19T15:05:55;6.25;;;2.70;;
7747;SDS011;3918;42.564;23.164;2023-02-19T15:08:27;4.50;;;2.80;;
7747;SDS011;3918;42.564;23.164;2023-02-19T15:10:57;3.20;;;2.25;;
7747;SDS011;3918;42.564;23.164;2023-02-19T15:13:28;3.08;;;2.70;;
7747;SDS011;3918;42.564;23.164;2023-02-19T15:15:56;13.20;;;2.85;;
7747;SDS011;3918;42.564;23.164;2023-02-19T15:18:24;3.70;;;2.42;;
7747;SDS011;3918;42.564;23.164;2023-02-19T15:20:57;3.38;;;2.90;;
7747;SDS011;3918;42.564;23.164;2023-02-19T15:23:26;3.35;;;2.40;;
7747;SDS011;3918;42.564;23.164;2023-02-19T15:25:55;3.63;;;2.38;;
7747;SDS011;3918;42.564;23.164;2023-02-19T15:28:28;3.60;;;2.25;;
7747;SDS011;3918;42.564;23.164;2023-02-19T15:31:11;4.30;;;2.70;;
7747;SDS011;3918;42.564;23.164;2023-02-19T15:33:47;3.22;;;2.55;;
7747;SDS011;3918;42.564;23.164;2023-02-19T15:36:15;4.22;;;2.75;;
7747;SDS011;3918;42.564;23.164;2023-02-19T15:38:51;2.53;;;2.38;;
7747;SDS011;3918;42.564;23.164;2023-02-19T15:41:20;3.03;;;2.20;;
7747;SDS011;3918;42.564;23.164;2023-02-19T15:43:50;10.77;;;3.28;;
7747;SDS011;3918;42.564;23.164;2023-02-19T15:46:22;2.70;;;2.42;;
7747;SDS011;3918;42.564;23.164;2023-02-19T15:48:51;2.83;;;2.42;;
7747;SDS011;3918;42.564;23.164;2023-02-19T15:51:25;6.38;;;2.38;;
7747;SDS011;3918;42.564;23.164;2023-02-19T15:53:57;4.90;;;2.42;;
7747;SDS011;3918;42.564;23.164;2023-02-19T15:56:36;3.97;;;2.90;;